Terminal Aerodrome Forecast
Issued by NWS Detroit/Pontiac, MI

Home | Current Version | Previous Version | Text Only | Print | Product List | Glossary On
Versions: 1 2 3 4 5 6 7 8 9 10 11 12 13 14 15 16 17 18 19 20 21 22 23 24 25 26 27 28 29 30 31 32 33 34 35 36
740
FTUS43 KDTX 282339
TAFDTW
TAF
KDTW 282339Z 2900/3006 01006KT P6SM SKC
     FM291400 04008KT P6SM SCT028
     FM291800 05008KT P6SM OVC150=

USA.gov is the U.S. government's official web portal to all federal, state and local government web resources and services.